Wetterdaten: Donnerstag, 05.02.2015
Datum Zeit Temp. A. Feuchte A. Luftdruck Regen Wind Richtung Richtung Sonnenschein ET UV Solar Taupunkt Windchill Windben Empfang
05.02.2015 00:00 -7,1 C 78 % 1015,6 hPa 0,0 l/m 0,0 km/h (0 Bft) S 180 0 min 0,000 mm 0,0 UV-I 0 W/m -10,3 C -7,1 C 0,0 km/h (0 Bft) 0,00 %
05.02.2015 00:15 -7,1 C 78 % 1015,7 hPa 0,0 l/m 0,0 km/h (0 Bft) S 188 0 min 0,000 mm 0,0 UV-I 0 W/m -10,3 C -7,1 C 0,0 km/h (0 Bft) 0,00 %
05.02.2015 00:30 -7,2 C 78 % 1015,5 hPa 0,0 l/m 0,0 km/h (0 Bft) S 190 0 min 0,000 mm 0,0 UV-I 0 W/m -10,4 C -7,2 C 0,0 km/h (0 Bft) 0,00 %
05.02.2015 00:45 -7,1 C 78 % 1015,2 hPa 0,0 l/m 0,0 km/h (0 Bft) S-SW 198 0 min 0,000 mm 0,0 UV-I 0 W/m -10,3 C -7,1 C 0,0 km/h (0 Bft) 0,00 %
05.02.2015 01:00 -7,3 C 78 % 1015,1 hPa 0,0 l/m 0,0 km/h (0 Bft) S 188 0 min 0,000 mm 0,0 UV-I 0 W/m -10,5 C -7,3 C 0,0 km/h (0 Bft) 0,00 %
05.02.2015 01:15 -6,8 C 78 % 1015,1 hPa 0,0 l/m 0,0 km/h (0 Bft) S-SW 196 0 min 0,000 mm 0,0 UV-I 0 W/m -10,0 C -6,8 C 0,0 km/h (0 Bft) 0,00 %
05.02.2015 01:30 -6,3 C 78 % 1015,0 hPa 0,0 l/m 0,0 km/h (0 Bft) S 176 0 min 0,000 mm 0,0 UV-I 0 W/m -9,5 C -6,3 C 0,0 km/h (0 Bft) 0,00 %
05.02.2015 01:45 -6,2 C 77 % 1015,1 hPa 0,0 l/m 0,0 km/h (0 Bft) S-SW 205 0 min 0,000 mm 0,0 UV-I 0 W/m -9,6 C -6,2 C 0,0 km/h (0 Bft) 0,00 %
05.02.2015 02:00 -6,0 C 77 % 1015,0 hPa 0,0 l/m 0,0 km/h (0 Bft) S 175 0 min 0,000 mm 0,0 UV-I 0 W/m -9,4 C -6,0 C 0,0 km/h (0 Bft) 0,00 %
05.02.2015 02:15 -5,8 C 76 % 1015,0 hPa 0,0 l/m 0,0 km/h (0 Bft) S 190 0 min 0,000 mm 0,0 UV-I 0 W/m -9,3 C -5,8 C 0,0 km/h (0 Bft) 0,00 %
05.02.2015 02:30 -5,7 C 76 % 1014,7 hPa 0,0 l/m 0,0 km/h (0 Bft) N 355 0 min 0,000 mm 0,0 UV-I 0 W/m -9,2 C -5,7 C 0,0 km/h (0 Bft) 0,00 %
05.02.2015 02:45 -5,4 C 74 % 1014,6 hPa 0,0 l/m 1,4 km/h (1 Bft) O-NO 73 0 min 0,000 mm 0,0 UV-I 0 W/m -9,3 C -5,4 C 4,0 km/h (1 Bft) 0,00 %
05.02.2015 03:00 -5,4 C 75 % 1014,4 hPa 0,0 l/m 0,4 km/h (0 Bft) NO 55 0 min 0,000 mm 0,0 UV-I 0 W/m -9,1 C -5,4 C 4,0 km/h (1 Bft) 0,00 %
05.02.2015 03:15 -5,4 C 73 % 1014,5 hPa 0,0 l/m 1,4 km/h (1 Bft) O-NO 70 0 min 0,000 mm 0,0 UV-I 0 W/m -9,5 C -5,4 C 4,0 km/h (1 Bft) 0,00 %
05.02.2015 03:30 -5,3 C 72 % 1014,3 hPa 0,0 l/m 4,3 km/h (1 Bft) N-NO 31 0 min 0,000 mm 0,0 UV-I 0 W/m -9,5 C -5,3 C 7,9 km/h (2 Bft) 0,00 %
05.02.2015 03:45 -5,2 C 71 % 1014,2 hPa 0,0 l/m 2,9 km/h (1 Bft) O-NO 78 0 min 0,000 mm 0,0 UV-I 0 W/m -9,6 C -5,2 C 4,0 km/h (1 Bft) 0,00 %
05.02.2015 04:00 -5,0 C 71 % 1014,5 hPa 0,0 l/m 0,0 km/h (0 Bft) O 96 0 min 0,000 mm 0,0 UV-I 0 W/m -9,4 C -5,0 C 0,0 km/h (0 Bft) 0,00 %
05.02.2015 04:15 -5,1 C 70 % 1014,4 hPa 0,0 l/m 4,3 km/h (1 Bft) O-NO 69 0 min 0,000 mm 0,0 UV-I 0 W/m -9,7 C -5,1 C 7,9 km/h (2 Bft) 0,00 %
05.02.2015 04:30 -5,0 C 69 % 1014,3 hPa 0,0 l/m 0,7 km/h (0 Bft) O 79 0 min 0,000 mm 0,0 UV-I 0 W/m -9,8 C -5,0 C 4,0 km/h (1 Bft) 0,00 %
05.02.2015 04:45 -4,9 C 68 % 1014,3 hPa 0,0 l/m 0,0 km/h (0 Bft) O-NO 60 0 min 0,000 mm 0,0 UV-I 0 W/m -9,9 C -4,9 C 0,0 km/h (0 Bft) 0,00 %
05.02.2015 05:00 -4,7 C 67 % 1014,1 hPa 0,0 l/m 4,7 km/h (1 Bft) O 93 0 min 0,000 mm 0,0 UV-I 0 W/m -9,9 C -4,7 C 7,9 km/h (2 Bft) 0,00 %
05.02.2015 05:15 -4,4 C 64 % 1014,2 hPa 0,0 l/m 4,3 km/h (1 Bft) O 94 0 min 0,000 mm 0,0 UV-I 0 W/m -10,2 C -4,4 C 7,9 km/h (2 Bft) 0,00 %
05.02.2015 05:30 -4,3 C 63 % 1013,8 hPa 0,0 l/m 1,8 km/h (1 Bft) O-NO 59 0 min 0,000 mm 0,0 UV-I 0 W/m -10,3 C -4,3 C 4,0 km/h (1 Bft) 0,00 %
05.02.2015 05:45 -4,4 C 63 % 1013,8 hPa 0,0 l/m 0,0 km/h (0 Bft) N 357 0 min 0,000 mm 0,0 UV-I 0 W/m -10,4 C -4,4 C 0,0 km/h (0 Bft) 0,00 %
05.02.2015 06:00 -4,3 C 63 % 1013,6 hPa 0,0 l/m 4,7 km/h (1 Bft) O 89 0 min 0,000 mm 0,0 UV-I 0 W/m -10,3 C -4,3 C 7,9 km/h (2 Bft) 0,00 %
05.02.2015 06:15 -4,3 C 63 % 1013,5 hPa 0,0 l/m 1,4 km/h (1 Bft) S-SW 198 0 min 0,000 mm 0,0 UV-I 0 W/m -10,3 C -4,3 C 7,9 km/h (2 Bft) 0,00 %
05.02.2015 06:30 -4,3 C 63 % 1013,6 hPa 0,0 l/m 6,5 km/h (2 Bft) O-NO 60 0 min 0,000 mm 0,0 UV-I 0 W/m -10,3 C -4,4 C 7,9 km/h (2 Bft) 0,00 %
05.02.2015 06:45 -4,1 C 62 % 1013,5 hPa 0,0 l/m 4,0 km/h (1 Bft) SO 124 0 min 0,000 mm 0,0 UV-I 0 W/m -10,3 C -4,1 C 7,9 km/h (2 Bft) 0,00 %
05.02.2015 07:00 -3,9 C 61 % 1013,8 hPa 0,0 l/m 1,4 km/h (1 Bft) O-SO 115 0 min 0,000 mm 0,0 UV-I 0 W/m -10,3 C -3,9 C 4,0 km/h (1 Bft) 0,00 %
05.02.2015 07:15 -3,9 C 61 % 1013,6 hPa 0,0 l/m 1,8 km/h (1 Bft) S-SO 147 0 min 0,000 mm 0,0 UV-I 0 W/m -10,3 C -3,9 C 4,0 km/h (1 Bft) 0,00 %
05.02.2015 07:30 -3,9 C 61 % 1013,9 hPa 0,0 l/m 3,2 km/h (1 Bft) O-SO 111 0 min 0,000 mm 0,0 UV-I 0 W/m -10,3 C -3,9 C 7,9 km/h (2 Bft) 0,00 %
05.02.2015 07:45 -3,9 C 61 % 1013,5 hPa 0,0 l/m 5,8 km/h (2 Bft) NO 56 0 min 0,000 mm 0,0 UV-I 6 W/m -10,3 C -3,9 C 11,9 km/h (2 Bft) 0,00 %
05.02.2015 08:00 -3,8 C 61 % 1013,9 hPa 0,0 l/m 1,4 km/h (1 Bft) O-NO 69 0 min 0,000 mm 0,0 UV-I 40 W/m -10,2 C -3,8 C 4,0 km/h (1 Bft) 0,00 %
05.02.2015 08:15 -3,6 C 60 % 1013,9 hPa 0,0 l/m 8,3 km/h (2 Bft) O 99 0 min 0,000 mm 0,0 UV-I 50 W/m -10,2 C -5,7 C 11,9 km/h (2 Bft) 0,00 %
05.02.2015 08:30 -3,5 C 59 % 1013,9 hPa 0,0 l/m 2,2 km/h (1 Bft) O-NO 77 15 min 0,000 mm 1,0 UV-I 90 W/m -10,3 C -3,5 C 4,0 km/h (1 Bft) 0,00 %
05.02.2015 08:45 -3,4 C 60 % 1014,1 hPa 0,0 l/m 4,7 km/h (1 Bft) O 98 0 min 0,000 mm 1,0 UV-I 100 W/m -10,0 C -3,4 C 11,9 km/h (2 Bft) 0,00 %
05.02.2015 09:00 -3,3 C 61 % 1013,6 hPa 0,0 l/m 5,4 km/h (1 Bft) O-SO 111 15 min 0,000 mm 1,0 UV-I 120 W/m -9,7 C -3,3 C 7,9 km/h (2 Bft) 0,00 %
05.02.2015 09:15 -3,2 C 62 % 1013,6 hPa 0,0 l/m 19,8 km/h (3 Bft) O 90 15 min 0,000 mm 1,0 UV-I 147 W/m -9,4 C -13,7 C 28,1 km/h (4 Bft) 0,00 %
05.02.2015 09:30 -2,9 C 62 % 1013,5 hPa 0,0 l/m 15,5 km/h (3 Bft) O-NO 72 15 min 0,000 mm 1,0 UV-I 221 W/m -9,1 C -10,8 C 28,1 km/h (4 Bft) 0,00 %
05.02.2015 09:45 -2,6 C 62 % 1013,5 hPa 0,0 l/m 25,6 km/h (4 Bft) O 98 15 min 0,000 mm 2,0 UV-I 299 W/m -8,9 C -15,5 C 32,0 km/h (5 Bft) 0,00 %
05.02.2015 10:00 -2,5 C 62 % 1013,6 hPa 0,0 l/m 19,4 km/h (3 Bft) O 94 15 min 0,000 mm 1,0 UV-I 211 W/m -8,8 C -12,6 C 24,1 km/h (4 Bft) 0,00 %
05.02.2015 10:15 -2,6 C 62 % 1013,5 hPa 0,0 l/m 11,5 km/h (2 Bft) N-NO 22 15 min 0,000 mm 2,0 UV-I 378 W/m -8,9 C -7,6 C 32,0 km/h (5 Bft) 0,00 %
05.02.2015 10:30 -2,6 C 61 % 1013,4 hPa 0,0 l/m 33,5 km/h (5 Bft) O-SO 103 15 min 0,000 mm 2,0 UV-I 370 W/m -9,1 C -18,1 C 40,0 km/h (6 Bft) 0,00 %
05.02.2015 10:45 -2,5 C 65 % 1013,5 hPa 0,0 l/m 22,3 km/h (4 Bft) O-SO 107 15 min 0,000 mm 2,0 UV-I 352 W/m -8,2 C -14,0 C 28,1 km/h (4 Bft) 0,00 %
05.02.2015 11:00 -2,2 C 65 % 1013,6 hPa 0,0 l/m 15,8 km/h (3 Bft) O 94 15 min 0,000 mm 2,0 UV-I 418 W/m -7,9 C -10,2 C 24,1 km/h (4 Bft) 0,00 %
05.02.2015 11:15 -1,9 C 64 % 1013,2 hPa 0,0 l/m 34,6 km/h (5 Bft) O-NO 78 15 min 0,000 mm 2,0 UV-I 428 W/m -7,8 C -17,4 C 44,3 km/h (6 Bft) 0,00 %
05.02.2015 11:30 -2,0 C 64 % 1013,3 hPa 0,0 l/m 24,1 km/h (4 Bft) O-SO 112 15 min 0,000 mm 2,0 UV-I 350 W/m -7,9 C -14,1 C 28,1 km/h (4 Bft) 0,00 %
05.02.2015 11:45 -2,0 C 64 % 1013,4 hPa 0,0 l/m 11,9 km/h (2 Bft) O 101 15 min 0,000 mm 2,0 UV-I 400 W/m -7,9 C -7,2 C 15,8 km/h (3 Bft) 0,00 %
05.02.2015 12:00 -1,9 C 64 % 1013,3 hPa 0,0 l/m 27,4 km/h (4 Bft) O-SO 120 15 min 0,000 mm 2,0 UV-I 442 W/m -7,8 C -15,2 C 36,0 km/h (5 Bft) 0,00 %
05.02.2015 12:15 -1,8 C 63 % 1013,6 hPa 0,0 l/m 25,6 km/h (4 Bft) O 93 15 min 0,000 mm 2,0 UV-I 459 W/m -7,9 C -14,4 C 28,1 km/h (4 Bft) 0,00 %
05.02.2015 12:30 -1,7 C 63 % 1013,3 hPa 0,0 l/m 15,8 km/h (3 Bft) O 99 15 min 0,000 mm 2,0 UV-I 541 W/m -7,8 C -9,5 C 19,8 km/h (3 Bft) 0,00 %
05.02.2015 12:45 -1,5 C 62 % 1013,1 hPa 0,0 l/m 16,9 km/h (3 Bft) O-SO 111 15 min 0,000 mm 2,0 UV-I 593 W/m -7,8 C -9,9 C 24,1 km/h (4 Bft) 0,00 %
05.02.2015 13:00 -1,5 C 62 % 1013,3 hPa 0,0 l/m 28,4 km/h (4 Bft) O-SO 102 15 min 0,000 mm 2,0 UV-I 470 W/m -7,8 C -15,0 C 44,3 km/h (6 Bft) 0,00 %
05.02.2015 13:15 -1,4 C 62 % 1013,2 hPa 0,0 l/m 28,4 km/h (4 Bft) S 175 15 min 0,000 mm 2,0 UV-I 456 W/m -7,7 C -14,9 C 36,0 km/h (5 Bft) 0,00 %
05.02.2015 13:30 -1,3 C 62 % 1013,1 hPa 0,0 l/m 25,9 km/h (4 Bft) O 98 15 min 0,000 mm 2,0 UV-I 410 W/m -7,6 C -13,8 C 32,0 km/h (5 Bft) 0,00 %
05.02.2015 13:45 -1,3 C 63 % 1013,3 hPa 0,0 l/m 13,0 km/h (3 Bft) O 83 15 min 0,000 mm 2,0 UV-I 287 W/m -7,4 C -7,2 C 15,8 km/h (3 Bft) 0,00 %
05.02.2015 14:00 -1,3 C 62 % 1013,4 hPa 0,0 l/m 22,0 km/h (4 Bft) O-SO 123 15 min 0,000 mm 1,0 UV-I 268 W/m -7,6 C -12,2 C 28,1 km/h (4 Bft) 0,00 %
05.02.2015 14:15 -1,2 C 62 % 1013,4 hPa 0,0 l/m 15,8 km/h (3 Bft) O-SO 122 0 min 0,000 mm 1,0 UV-I 146 W/m -7,5 C -8,9 C 19,8 km/h (3 Bft) 0,00 %
05.02.2015 14:30 -1,1 C 62 % 1013,5 hPa 0,0 l/m 22,3 km/h (4 Bft) O-SO 115 0 min 0,000 mm 1,0 UV-I 165 W/m -7,4 C -12,1 C 36,0 km/h (5 Bft) 0,00 %
05.02.2015 14:45 -1,0 C 62 % 1013,8 hPa 0,0 l/m 15,8 km/h (3 Bft) SO 138 15 min 0,000 mm 1,0 UV-I 178 W/m -7,3 C -8,7 C 28,1 km/h (4 Bft) 0,00 %
05.02.2015 15:00 -0,9 C 62 % 1013,6 hPa 0,0 l/m 9,4 km/h (2 Bft) O 100 15 min 0,000 mm 1,0 UV-I 197 W/m -7,2 C -3,9 C 15,8 km/h (3 Bft) 0,00 %
05.02.2015 15:15 -0,8 C 63 % 1013,7 hPa 0,0 l/m 17,3 km/h (3 Bft) SO 127 15 min 0,000 mm 1,0 UV-I 156 W/m -6,9 C -9,3 C 28,1 km/h (4 Bft) 0,00 %
05.02.2015 15:30 -0,9 C 63 % 1013,9 hPa 0,0 l/m 26,6 km/h (4 Bft) O 100 0 min 0,000 mm 1,0 UV-I 77 W/m -7,0 C -13,5 C 32,0 km/h (5 Bft) 0,00 %
05.02.2015 15:45 -0,9 C 64 % 1014,0 hPa 0,0 l/m 23,0 km/h (4 Bft) O-NO 73 0 min 0,000 mm 1,0 UV-I 66 W/m -6,8 C -12,1 C 28,1 km/h (4 Bft) 0,00 %
05.02.2015 16:00 -1,0 C 65 % 1014,5 hPa 0,0 l/m 15,5 km/h (3 Bft) S 176 0 min 0,000 mm 1,0 UV-I 33 W/m -6,7 C -8,5 C 24,1 km/h (4 Bft) 0,00 %
05.02.2015 16:15 -1,2 C 66 % 1014,6 hPa 0,0 l/m 18,0 km/h (3 Bft) O-SO 116 0 min 0,000 mm 1,0 UV-I 22 W/m -6,7 C -10,2 C 24,1 km/h (4 Bft) 0,00 %
05.02.2015 16:30 -1,2 C 66 % 1014,9 hPa 0,0 l/m 24,5 km/h (4 Bft) S 171 15 min 0,000 mm 0,0 UV-I 67 W/m -6,7 C -13,1 C 32,0 km/h (5 Bft) 0,00 %
05.02.2015 16:45 -1,3 C 66 % 1015,0 hPa 0,0 l/m 15,5 km/h (3 Bft) O-SO 103 0 min 0,000 mm 0,0 UV-I 4 W/m -6,8 C -8,9 C 24,1 km/h (4 Bft) 0,00 %
05.02.2015 17:00 -1,3 C 66 % 1015,1 hPa 0,0 l/m 17,3 km/h (3 Bft) O 79 0 min 0,000 mm 0,0 UV-I 5 W/m -6,8 C -9,9 C 24,1 km/h (4 Bft) 0,00 %
05.02.2015 17:15 -1,5 C 67 % 1014,9 hPa 0,0 l/m 7,2 km/h (2 Bft) S 170 0 min 0,000 mm 0,0 UV-I 0 W/m -6,8 C -2,4 C 11,9 km/h (2 Bft) 0,00 %
05.02.2015 17:30 -1,6 C 68 % 1015,4 hPa 0,0 l/m 15,8 km/h (3 Bft) O-SO 116 0 min 0,000 mm 0,0 UV-I 0 W/m -6,7 C -9,4 C 24,1 km/h (4 Bft) 0,00 %
05.02.2015 17:45 -1,5 C 68 % 1015,4 hPa 0,0 l/m 15,5 km/h (3 Bft) O-NO 72 0 min 0,000 mm 0,0 UV-I 0 W/m -6,6 C -9,1 C 24,1 km/h (4 Bft) 0,00 %
05.02.2015 18:00 -1,7 C 68 % 1015,8 hPa 0,0 l/m 30,6 km/h (5 Bft) O 95 0 min 0,000 mm 0,0 UV-I 0 W/m -6,8 C -16,0 C 36,0 km/h (5 Bft) 0,00 %
05.02.2015 18:15 -1,7 C 67 % 1016,0 hPa 0,0 l/m 14,8 km/h (3 Bft) O-SO 121 0 min 0,000 mm 0,0 UV-I 0 W/m -7,0 C -8,9 C 19,8 km/h (3 Bft) 0,00 %
05.02.2015 18:30 -1,8 C 67 % 1016,0 hPa 0,0 l/m 22,3 km/h (4 Bft) O-SO 109 0 min 0,000 mm 0,0 UV-I 0 W/m -7,1 C -13,0 C 32,0 km/h (5 Bft) 0,00 %
05.02.2015 18:45 -1,7 C 66 % 1016,2 hPa 0,0 l/m 19,1 km/h (3 Bft) O 87 0 min 0,000 mm 0,0 UV-I 0 W/m -7,2 C -11,4 C 28,1 km/h (4 Bft) 0,00 %
05.02.2015 19:00 -1,7 C 66 % 1016,2 hPa 0,0 l/m 11,5 km/h (2 Bft) O-SO 105 0 min 0,000 mm 0,0 UV-I 0 W/m -7,2 C -6,6 C 15,8 km/h (3 Bft) 0,00 %
05.02.2015 19:15 -1,6 C 66 % 1016,6 hPa 0,0 l/m 23,0 km/h (4 Bft) O 94 0 min 0,000 mm 0,0 UV-I 0 W/m -7,1 C -13,1 C 28,1 km/h (4 Bft) 0,00 %
05.02.2015 19:30 -1,6 C 65 % 1016,6 hPa 0,0 l/m 17,3 km/h (3 Bft) SO 125 0 min 0,000 mm 0,0 UV-I 0 W/m -7,3 C -10,3 C 28,1 km/h (4 Bft) 0,00 %
05.02.2015 19:45 -1,6 C 66 % 1016,7 hPa 0,0 l/m 26,6 km/h (4 Bft) O-SO 106 0 min 0,000 mm 0,0 UV-I 0 W/m -7,1 C -14,5 C 32,0 km/h (5 Bft) 0,00 %
05.02.2015 20:00 -1,7 C 66 % 1016,9 hPa 0,0 l/m 27,4 km/h (4 Bft) O-SO 109 0 min 0,000 mm 0,0 UV-I 0 W/m -7,2 C -14,9 C 32,0 km/h (5 Bft) 0,00 %
05.02.2015 20:15 -1,7 C 65 % 1017,0 hPa 0,0 l/m 18,4 km/h (3 Bft) O 94 0 min 0,000 mm 0,0 UV-I 0 W/m -7,4 C -11,0 C 24,1 km/h (4 Bft) 0,00 %
05.02.2015 20:30 -1,8 C 65 % 1017,2 hPa 0,0 l/m 19,8 km/h (3 Bft) O 93 0 min 0,000 mm 0,0 UV-I 0 W/m -7,5 C -11,9 C 28,1 km/h (4 Bft) 0,00 %
05.02.2015 20:45 -1,9 C 65 % 1017,3 hPa 0,0 l/m 18,0 km/h (3 Bft) O 99 0 min 0,000 mm 0,0 UV-I 0 W/m -7,6 C -11,0 C 36,0 km/h (5 Bft) 0,00 %
05.02.2015 21:00 -2,0 C 65 % 1017,5 hPa 0,0 l/m 26,6 km/h (4 Bft) O-SO 106 0 min 0,000 mm 0,0 UV-I 0 W/m -7,7 C -15,0 C 36,0 km/h (5 Bft) 0,00 %
05.02.2015 21:15 -2,1 C 65 % 1017,9 hPa 0,0 l/m 23,4 km/h (4 Bft) O 85 0 min 0,000 mm 0,0 UV-I 0 W/m -7,8 C -13,9 C 32,0 km/h (5 Bft) 0,00 %
05.02.2015 21:30 -2,2 C 65 % 1018,0 hPa 0,0 l/m 15,5 km/h (3 Bft) N 357 0 min 0,000 mm 0,0 UV-I 0 W/m -7,9 C -10,0 C 24,1 km/h (4 Bft) 0,00 %
05.02.2015 21:45 -2,3 C 65 % 1018,0 hPa 0,0 l/m 33,1 km/h (5 Bft) O 101 0 min 0,000 mm 0,0 UV-I 0 W/m -8,0 C -17,6 C 36,0 km/h (5 Bft) 0,00 %
05.02.2015 22:00 -2,4 C 65 % 1018,1 hPa 0,0 l/m 23,0 km/h (4 Bft) O 80 0 min 0,000 mm 0,0 UV-I 0 W/m -8,1 C -14,1 C 32,0 km/h (5 Bft) 0,00 %
05.02.2015 22:15 -2,5 C 61 % 1018,4 hPa 0,0 l/m 31,7 km/h (5 Bft) O 93 0 min 0,000 mm 0,0 UV-I 0 W/m -9,0 C -17,5 C 40,0 km/h (6 Bft) 0,00 %
05.02.2015 22:30 -2,6 C 61 % 1018,1 hPa 0,0 l/m 23,0 km/h (4 Bft) O-SO 116 0 min 0,000 mm 0,0 UV-I 0 W/m -9,1 C -14,4 C 28,1 km/h (4 Bft) 0,00 %
05.02.2015 22:45 -2,6 C 61 % 1018,3 hPa 0,0 l/m 24,8 km/h (4 Bft) O-NO 72 0 min 0,000 mm 0,0 UV-I 0 W/m -9,1 C -15,2 C 28,1 km/h (4 Bft) 0,00 %
05.02.2015 23:00 -2,5 C 60 % 1018,1 hPa 0,0 l/m 29,5 km/h (5 Bft) O 92 0 min 0,000 mm 0,0 UV-I 0 W/m -9,2 C -16,8 C 36,0 km/h (5 Bft) 0,00 %
05.02.2015 23:15 -2,3 C 64 % 1018,3 hPa 0,0 l/m 18,0 km/h (3 Bft) O 97 0 min 0,000 mm 0,0 UV-I 0 W/m -8,2 C -11,6 C 28,1 km/h (4 Bft) 0,00 %
05.02.2015 23:30 -2,3 C 64 % 1018,5 hPa 0,0 l/m 23,0 km/h (4 Bft) O-SO 108 0 min 0,000 mm 0,0 UV-I 0 W/m -8,2 C -14,0 C 36,0 km/h (5 Bft) 0,00 %
05.02.2015 23:45 -2,3 C 64 % 1018,7 hPa 0,0 l/m 15,5 km/h (3 Bft) O 99 0 min 0,000 mm 0,0 UV-I 0 W/m -8,2 C -10,1 C 19,8 km/h (3 Bft) 0,00 %
_ Min-Zeit 01:00 08:30 12:45 - 00:00 - - - - - - 01:00 10:30 00:00 00:00
Minimum _ -7,3 C 59 % 1013,1 hPa - 0,0 km/h (0 Bft) - - - - - - -10,5 C -18,1 C 0,0 km/h (0 Bft) 0,00 %
_ Max-Zeit 15:15 00:00 23:45 00:00 11:15 - - 08:30 00:00 09:45 12:45 17:45 17:15 11:15 00:00
Maximum _ -0,8 C 78 % 1018,7 hPa 0,0 l/m 34,6 km/h
O-NO (5 Bft)
- - 15 min 0,000 mm 2,0 UV-I 593 W/m -6,6 C -2,4 C 44,3 km/h
O-NO (6 Bft)
0,00 %
Durchschnitt _ -3,0 C 66 % 1014,9 hPa #0,0 l/m 13,8 km/h (3 Bft) O - #6:30 h #0,000 mm 1,5 UV-I 237 W/m -8,5 C -9,4 C 19,3 km/h (3 Bft) 0,00 %